This is the latest recevied weather packets stored in our database for station/object OE9FWV. If no packets are shown the sender has not sent any weather packets the latest 10 day(s).
| Time | Temp. | Humidity | Pressure | Rain* | Wind** | Luminosity | Snow |
|---|---|---|---|---|---|---|---|
| 1777203059 | 21.67° C | 40% | 1019.6 hPa | 0 mm | - | - | - |
| 1777202457 | 21.67° C | 40% | 1019.8 hPa | 0 mm | - | - | - |
| 1777201849 | 21.67° C | 41% | 1019.8 hPa | 0 mm | - | - | - |
| 1777201244 | 21.11° C | 42% | 1020.1 hPa | 0 mm | - | - | - |
| 1777200035 | 21.11° C | 43% | 1020.3 hPa | 0 mm | - | - | - |
| 1777197622 | 20.56° C | 46% | 1020.5 hPa | 0 mm | - | - | - |
| 1777196413 | 20° C | 43% | 1020.4 hPa | 0 mm | - | - | - |
| 1777195812 | 20° C | 45% | 1020.5 hPa | 0 mm | - | - | - |
| 1777194600 | 18.89° C | 50% | 1020.6 hPa | 0 mm | - | - | - |
| 1777193400 | 18.33° C | 50% | 1020.8 hPa | 0 mm | - | - | - |
| 1777192796 | 17.22° C | 53% | 1020.8 hPa | 0 mm | - | - | - |
| 1777192190 | 17.22° C | 52% | 1020.9 hPa | 0 mm | - | - | - |
| 1777191585 | 16.67° C | 54% | 1020.9 hPa | 0 mm | - | - | - |
| 1777189176 | 15° C | 59% | 1021.1 hPa | 0 mm | - | - | - |
| 1777188575 | 14.44° C | 60% | 1021 hPa | 0 mm | - | - | - |
| 1777187970 | 13.89° C | 60% | 1021.2 hPa | 0 mm | - | - | - |
| 1777186845 | 12.22° C | 64% | 1021.1 hPa | 0 mm | - | - | - |
| 1777186770 | 12.22° C | 64% | 1021.1 hPa | 0 mm | - | - | - |
| 1777184955 | 10.56° C | 70% | 1021.1 hPa | 0 mm | - | - | - |
| 1777184463 | 10° C | 73% | 1021.1 hPa | 0 mm | - | - | - |
| 1777184350 | 10° C | 73% | 1021.1 hPa | 0 mm | - | - | - |
| 1777183750 | 12.22° C | 70% | 1021.2 hPa | 0 mm | - | - | - |
| 1777181936 | 9.44° C | 74% | 1021.2 hPa | 0 mm | - | - | - |
| 1777181332 | 8.33° C | 77% | 1021.1 hPa | 0 mm | - | - | - |
| 1777180733 | 7.78° C | 78% | 1021.1 hPa | 0 mm | - | - | - |
* Rain latest hour (hover to see other rain measurements)
** Current wind speed in m/s (hover to see current wind gust speed)